PWSweather.com
Personal Weather Stations
Station Observations
KWABLAIN13
Ptl Weather, Blaine, WA

Ptl WeatherBlaine, WA

Lat: 48.997393, Lon: -122.748614

Elevation: 57

Station Type: Davis Advantage Pro 2

http://www.ptlnet.net

Latest ConditionsUpdated 1:30:04 PM PDT Saturday, May 28, 2016
Currently Today's Max Today's Min Today's Average
Temperature 53.7°F12.1°C 53.8°F12.1°C 48.2°F9.0°C 50.4°F10.2°C
Dew Point 49.9°F9.9°C 49.9°F9.9°C 45.5°F7.5°C 47.2°F8.4°C
Winds 9.0 mph SE14.5 kmh SE 18.0 mph SE29.0 kmh SE - 5.4 mph 8.7 kmh
Wind Gusts 17.0 mph27.4 kmh 26.0 mph41.8 kmh - -
Humidity 87% 96% 77% 89%
Pressure 29.97 in1014.9 mb 30.06 in1017.9 mb 29.97 in1014.9 mb -
Hour Temp Dew Point Humidity Winds Wind Gusts Pressure Precip Precip Rate Daily Precip Total
01:30 PM 53.7°F12.1°C 49.9°F9.9°C 87% 9.0 mph SE14.5 kmh SE 17.0 mph27.4 kmh 29.97 in1014.9 mb 0.00 in0.0 mm 0.00 in0.0 mm 0.15 in3.8 mm
01:25 PM 53.7°F12.1°C 49.9°F9.9°C 87% 5.0 mph SE8.0 kmh SE 17.0 mph27.4 kmh 29.97 in1014.9 mb 0.00 in0.0 mm 0.00 in0.0 mm 0.15 in3.8 mm
01:10 PM 53.8°F12.1°C 49.7°F9.8°C 86% 7.0 mph SE11.3 kmh SE 15.0 mph24.1 kmh 29.97 in1014.9 mb 0.00 in0.0 mm 0.00 in0.0 mm 0.15 in3.8 mm
01:05 PM 53.8°F12.1°C 49.7°F9.8°C 86% 7.0 mph SE11.3 kmh SE 14.0 mph22.5 kmh 29.97 in1014.9 mb 0.00 in0.0 mm 0.00 in0.0 mm 0.15 in3.8 mm
12:49 PM 53.3°F11.8°C 49.2°F9.6°C 86% 10.0 mph SE16.1 kmh SE 18.0 mph29.0 kmh 29.97 in1014.9 mb 0.00 in0.0 mm 0.00 in0.0 mm 0.15 in3.8 mm
12:45 PM 53.1°F11.7°C 49.0°F9.4°C 86% 6.0 mph SSE9.7 kmh SSE 18.0 mph29.0 kmh 29.97 in1014.9 mb 0.00 in0.0 mm 0.00 in0.0 mm 0.15 in3.8 mm
12:29 PM 52.6°F11.4°C 48.9°F9.4°C 87% 15.0 mph SE24.1 kmh SE 23.0 mph37.0 kmh 29.97 in1014.9 mb 0.00 in0.0 mm 0.00 in0.0 mm 0.15 in3.8 mm
12:24 PM 52.6°F11.4°C 48.9°F9.4°C 87% 18.0 mph SE29.0 kmh SE 23.0 mph37.0 kmh 29.98 in1015.2 mb 0.00 in0.0 mm 0.00 in0.0 mm 0.15 in3.8 mm
12:10 PM 52.3°F11.3°C 48.6°F9.2°C 87% 8.0 mph SSW12.9 kmh SSW 16.0 mph25.7 kmh 29.98 in1015.2 mb 0.00 in0.0 mm 0.00 in0.0 mm 0.15 in3.8 mm
12:05 PM 52.1°F11.2°C 48.7°F9.3°C 88% 6.0 mph ESE9.7 kmh ESE 17.0 mph27.4 kmh 29.98 in1015.2 mb 0.00 in0.0 mm 0.00 in0.0 mm 0.15 in3.8 mm
11:49 AM 51.9°F11.1°C 48.5°F9.2°C 88% 7.0 mph SSE11.3 kmh SSE 20.0 mph32.2 kmh 29.98 in1015.2 mb 0.00 in0.0 mm 0.00 in0.0 mm 0.15 in3.8 mm
11:45 AM 52.0°F11.1°C 48.9°F9.4°C 89% 10.0 mph SE16.1 kmh SE 16.0 mph25.7 kmh 29.97 in1014.9 mb 0.00 in0.0 mm 0.00 in0.0 mm 0.15 in3.8 mm
11:29 AM 51.5°F10.8°C 48.4°F9.1°C 89% 15.0 mph SE24.1 kmh SE 26.0 mph41.8 kmh 29.97 in1014.9 mb 0.00 in0.0 mm 0.00 in0.0 mm 0.15 in3.8 mm
11:25 AM 51.3°F10.7°C 48.2°F9.0°C 89% 13.0 mph S20.9 kmh S 26.0 mph41.8 kmh 29.98 in1015.2 mb 0.00 in0.0 mm 0.00 in0.0 mm 0.15 in3.8 mm
11:10 AM 51.0°F10.6°C 47.9°F8.8°C 89% 9.0 mph SE14.5 kmh SE 19.0 mph30.6 kmh 29.98 in1015.2 mb 0.00 in0.0 mm 0.00 in0.0 mm 0.15 in3.8 mm
11:05 AM 50.8°F10.4°C 48.0°F8.9°C 90% 13.0 mph SE20.9 kmh SE 16.0 mph25.7 kmh 29.98 in1015.2 mb 0.00 in0.0 mm 0.00 in0.0 mm 0.15 in3.8 mm
10:50 AM 50.3°F10.2°C 47.8°F8.8°C 91% 13.0 mph SE20.9 kmh SE 25.0 mph40.2 kmh 29.98 in1015.2 mb 0.00 in0.0 mm 0.00 in0.0 mm 0.15 in3.8 mm
10:45 AM 50.2°F10.1°C 47.7°F8.7°C 91% 7.0 mph S11.3 kmh S 16.0 mph25.7 kmh 29.98 in1015.2 mb 0.00 in0.0 mm 0.00 in0.0 mm 0.15 in3.8 mm
10:29 AM 50.1°F10.1°C 47.6°F8.7°C 91% 4.0 mph SE6.4 kmh SE 20.0 mph32.2 kmh 29.98 in1015.2 mb 0.01 in0.3 mm 0.00 in0.0 mm 0.15 in3.8 mm
10:25 AM 50.0°F10.0°C 47.5°F8.6°C 91% 8.0 mph SE12.9 kmh SE 18.0 mph29.0 kmh 29.98 in1015.2 mb 0.01 in0.3 mm 0.00 in0.0 mm 0.15 in3.8 mm
10:10 AM 49.7°F9.8°C 47.8°F8.8°C 93% 6.0 mph SE9.7 kmh SE 8.0 mph12.9 kmh 29.98 in1015.2 mb 0.01 in0.3 mm 0.00 in0.0 mm 0.15 in3.8 mm
10:05 AM 49.6°F9.8°C 47.7°F8.7°C 93% 14.0 mph S22.5 kmh S 18.0 mph29.0 kmh 29.98 in1015.2 mb 0.02 in0.5 mm 0.00 in0.0 mm 0.15 in3.8 mm
09:50 AM 49.5°F9.7°C 47.6°F8.7°C 93% 8.0 mph SE12.9 kmh SE 9.0 mph14.5 kmh 29.98 in1015.2 mb 0.02 in0.5 mm 0.00 in0.0 mm 0.15 in3.8 mm
09:45 AM 49.5°F9.7°C 47.9°F8.8°C 94% 4.0 mph SE6.4 kmh SE 18.0 mph29.0 kmh 29.98 in1015.2 mb 0.03 in0.8 mm 0.00 in0.0 mm 0.15 in3.8 mm
09:30 AM 49.4°F9.7°C 47.8°F8.8°C 94% 8.0 mph E12.9 kmh E 10.0 mph16.1 kmh 29.99 in1015.6 mb 0.03 in0.8 mm 0.00 in0.0 mm 0.15 in3.8 mm
09:25 AM 49.4°F9.7°C 48.0°F8.9°C 95% 9.0 mph SE14.5 kmh SE 21.0 mph33.8 kmh 29.99 in1015.6 mb 0.04 in1.0 mm 0.00 in0.0 mm 0.15 in3.8 mm
09:09 AM 49.1°F9.5°C 48.0°F8.9°C 96% 13.0 mph SE20.9 kmh SE 22.0 mph35.4 kmh 29.99 in1015.6 mb 0.06 in1.5 mm 0.00 in0.0 mm 0.15 in3.8 mm
09:05 AM 49.0°F9.4°C 47.9°F8.8°C 96% 3.0 mph ESE4.8 kmh ESE 16.0 mph25.7 kmh 29.99 in1015.6 mb 0.06 in1.5 mm 0.00 in0.0 mm 0.15 in3.8 mm
08:49 AM 48.7°F9.3°C 47.3°F8.5°C 95% 5.0 mph SE8.0 kmh SE 10.0 mph16.1 kmh 30.00 in1015.9 mb 0.07 in1.8 mm 0.15 in3.8 mm 0.15 in3.8 mm
08:45 AM 48.7°F9.3°C 47.3°F8.5°C 95% 2.0 mph E3.2 kmh E 7.0 mph11.3 kmh 30.00 in1015.9 mb 0.06 in1.5 mm 0.00 in0.0 mm 0.14 in3.6 mm
08:29 AM 48.6°F9.2°C 47.2°F8.4°C 95% 3.0 mph ESE4.8 kmh ESE 9.0 mph14.5 kmh 30.00 in1015.9 mb 0.06 in1.5 mm 0.00 in0.0 mm 0.14 in3.6 mm
08:24 AM 48.6°F9.2°C 47.2°F8.4°C 95% 4.0 mph E6.4 kmh E 9.0 mph14.5 kmh 30.00 in1015.9 mb 0.06 in1.5 mm 0.04 in1.0 mm 0.14 in3.6 mm
08:10 AM 48.4°F9.1°C 47.0°F8.3°C 95% 11.0 mph SE17.7 kmh SE 11.0 mph17.7 kmh 30.00 in1015.9 mb 0.05 in1.3 mm 0.00 in0.0 mm 0.13 in3.3 mm
08:05 AM 48.4°F9.1°C 47.0°F8.3°C 95% 6.0 mph ESE9.7 kmh ESE 10.0 mph16.1 kmh 30.00 in1015.9 mb 0.05 in1.3 mm 0.00 in0.0 mm 0.13 in3.3 mm
07:50 AM 48.3°F9.1°C 46.9°F8.3°C 95% 2.0 mph ESE3.2 kmh ESE 9.0 mph14.5 kmh 30.01 in1016.3 mb 0.07 in1.8 mm 0.00 in0.0 mm 0.13 in3.3 mm
07:45 AM 48.3°F9.1°C 46.9°F8.3°C 95% 2.0 mph ESE3.2 kmh ESE 6.0 mph9.7 kmh 30.01 in1016.3 mb 0.07 in1.8 mm 0.00 in0.0 mm 0.13 in3.3 mm
07:29 AM 48.2°F9.0°C 46.8°F8.2°C 95% 6.0 mph ESE9.7 kmh ESE 9.0 mph14.5 kmh 30.01 in1016.3 mb 0.09 in2.3 mm 0.15 in3.8 mm 0.13 in3.3 mm
07:25 AM 48.2°F9.0°C 46.8°F8.2°C 95% 1.0 mph ESE1.6 kmh ESE 6.0 mph9.7 kmh 30.01 in1016.3 mb 0.08 in2.0 mm 0.00 in0.0 mm 0.12 in3.0 mm
07:10 AM 48.2°F9.0°C 46.8°F8.2°C 95% 4.0 mph ESE6.4 kmh ESE 8.0 mph12.9 kmh 30.01 in1016.3 mb 0.11 in2.8 mm 0.12 in3.0 mm 0.12 in3.0 mm
07:05 AM 48.3°F9.1°C 46.9°F8.3°C 95% 5.0 mph E8.0 kmh E 8.0 mph12.9 kmh 30.02 in1016.6 mb 0.10 in2.5 mm 0.01 in0.3 mm 0.11 in2.8 mm
06:50 AM 48.4°F9.1°C 47.0°F8.3°C 95% 2.0 mph SE3.2 kmh SE 8.0 mph12.9 kmh 30.02 in1016.6 mb 0.09 in2.3 mm 0.10 in2.5 mm 0.10 in2.5 mm
06:44 AM 48.5°F9.2°C 47.1°F8.4°C 95% 2.0 mph E3.2 kmh E 8.0 mph12.9 kmh 30.02 in1016.6 mb 0.08 in2.0 mm 0.09 in2.3 mm 0.09 in2.3 mm
06:30 AM 48.6°F9.2°C 47.2°F8.4°C 95% 4.0 mph E6.4 kmh E 8.0 mph12.9 kmh 30.02 in1016.6 mb 0.06 in1.5 mm 0.12 in3.0 mm 0.07 in1.8 mm
06:25 AM 48.6°F9.2°C 47.2°F8.4°C 95% 5.0 mph E8.0 kmh E 8.0 mph12.9 kmh 30.02 in1016.6 mb 0.05 in1.3 mm 0.04 in1.0 mm 0.06 in1.5 mm
06:10 AM 48.6°F9.2°C 47.0°F8.3°C 94% 4.0 mph SE6.4 kmh SE 7.0 mph11.3 kmh 30.03 in1016.9 mb 0.04 in1.0 mm 0.00 in0.0 mm 0.05 in1.3 mm
06:05 AM 48.6°F9.2°C 47.0°F8.3°C 94% 1.0 mph SE1.6 kmh SE 4.0 mph6.4 kmh 30.03 in1016.9 mb 0.04 in1.0 mm 0.01 in0.3 mm 0.05 in1.3 mm
05:50 AM 48.6°F9.2°C 47.0°F8.3°C 94% 4.0 mph ESE6.4 kmh ESE 4.0 mph6.4 kmh 30.03 in1016.9 mb 0.03 in0.8 mm 0.00 in0.0 mm 0.04 in1.0 mm
05:45 AM 48.6°F9.2°C 47.0°F8.3°C 94% 1.0 mph ESE1.6 kmh ESE 4.0 mph6.4 kmh 30.03 in1016.9 mb 0.03 in0.8 mm 0.00 in0.0 mm 0.04 in1.0 mm
05:30 AM 48.7°F9.3°C 46.8°F8.2°C 93% 3.0 mph SE4.8 kmh SE 7.0 mph11.3 kmh 30.03 in1016.9 mb 0.04 in1.0 mm 0.12 in3.0 mm 0.04 in1.0 mm
05:25 AM 48.8°F9.3°C 46.9°F8.3°C 93% 2.0 mph ESE3.2 kmh ESE 6.0 mph9.7 kmh 30.03 in1016.9 mb 0.03 in0.8 mm 0.04 in1.0 mm 0.03 in0.8 mm
05:10 AM 49.0°F9.4°C 46.8°F8.2°C 92% 2.0 mph SE3.2 kmh SE 7.0 mph11.3 kmh 30.04 in1017.3 mb 0.02 in0.5 mm 0.00 in0.0 mm 0.02 in0.5 mm
05:05 AM 49.0°F9.4°C 46.8°F8.2°C 92% 4.0 mph SE6.4 kmh SE 4.0 mph6.4 kmh 30.04 in1017.3 mb 0.02 in0.5 mm 0.01 in0.3 mm 0.02 in0.5 mm
04:49 AM 49.3°F9.6°C 47.1°F8.4°C 92% 3.0 mph SE4.8 kmh SE 6.0 mph9.7 kmh 30.04 in1017.3 mb 0.01 in0.3 mm 0.00 in0.0 mm 0.01 in0.3 mm
04:44 AM 49.3°F9.6°C 47.1°F8.4°C 92% 1.0 mph SSE1.6 kmh SSE 4.0 mph6.4 kmh 30.04 in1017.3 mb 0.01 in0.3 mm 0.04 in1.0 mm 0.01 in0.3 mm
04:29 AM 49.3°F9.6°C 46.8°F8.2°C 91% 2.0 mph S3.2 kmh S 7.0 mph11.3 kmh 30.04 in1017.3 mb 0.00 in0.0 mm 0.00 in0.0 mm 0.00 in0.0 mm
04:25 AM 49.3°F9.6°C 46.8°F8.2°C 91% Calm Calm 4.0 mph6.4 kmh 30.04 in1017.3 mb 0.00 in0.0 mm 0.00 in0.0 mm 0.00 in0.0 mm
04:10 AM 49.5°F9.7°C 46.7°F8.2°C 90% 4.0 mph SSE6.4 kmh SSE 7.0 mph11.3 kmh 30.04 in1017.3 mb 0.00 in0.0 mm 0.00 in0.0 mm 0.00 in0.0 mm
04:05 AM 49.5°F9.7°C 46.4°F8.0°C 89% 4.0 mph SE6.4 kmh SE 7.0 mph11.3 kmh 30.04 in1017.3 mb 0.00 in0.0 mm 0.00 in0.0 mm 0.00 in0.0 mm
03:49 AM 49.6°F9.8°C 46.2°F7.9°C 88% 3.0 mph ESE4.8 kmh ESE 6.0 mph9.7 kmh 30.04 in1017.3 mb 0.00 in0.0 mm 0.00 in0.0 mm 0.00 in0.0 mm
03:44 AM 49.7°F9.8°C 46.0°F7.8°C 87% 2.0 mph SE3.2 kmh SE 6.0 mph9.7 kmh 30.04 in1017.3 mb 0.00 in0.0 mm 0.00 in0.0 mm 0.00 in0.0 mm
03:30 AM 49.9°F9.9°C 45.9°F7.7°C 86% 2.0 mph SSE3.2 kmh SSE 6.0 mph9.7 kmh 30.05 in1017.6 mb 0.00 in0.0 mm 0.00 in0.0 mm 0.00 in0.0 mm
03:24 AM 50.0°F10.0°C 46.0°F7.8°C 86% 3.0 mph SE4.8 kmh SE 6.0 mph9.7 kmh 30.05 in1017.6 mb 0.00 in0.0 mm 0.00 in0.0 mm 0.00 in0.0 mm
03:10 AM 50.5°F10.3°C 45.9°F7.7°C 84% 5.0 mph SE8.0 kmh SE 7.0 mph11.3 kmh 30.05 in1017.6 mb 0.00 in0.0 mm 0.00 in0.0 mm 0.00 in0.0 mm
03:05 AM 50.6°F10.3°C 45.6°F7.6°C 83% 3.0 mph SE4.8 kmh SE 7.0 mph11.3 kmh 30.05 in1017.6 mb 0.00 in0.0 mm 0.00 in0.0 mm 0.00 in0.0 mm
02:50 AM 51.1°F10.6°C 45.5°F7.5°C 81% 5.0 mph SE8.0 kmh SE 6.0 mph9.7 kmh 30.05 in1017.6 mb 0.00 in0.0 mm 0.00 in0.0 mm 0.00 in0.0 mm
02:45 AM 51.1°F10.6°C 45.5°F7.5°C 81% 2.0 mph S3.2 kmh S 5.0 mph8.0 kmh 30.05 in1017.6 mb 0.00 in0.0 mm 0.00 in0.0 mm 0.00 in0.0 mm
02:30 AM 51.4°F10.8°C 45.8°F7.7°C 81% 4.0 mph SE6.4 kmh SE 6.0 mph9.7 kmh 30.05 in1017.6 mb 0.00 in0.0 mm 0.00 in0.0 mm 0.00 in0.0 mm
02:25 AM 51.5°F10.8°C 45.9°F7.7°C 81% 4.0 mph SE6.4 kmh SE 6.0 mph9.7 kmh 30.05 in1017.6 mb 0.00 in0.0 mm 0.00 in0.0 mm 0.00 in0.0 mm
02:10 AM 51.7°F10.9°C 45.7°F7.6°C 80% 2.0 mph SW3.2 kmh SW 3.0 mph4.8 kmh 30.05 in1017.6 mb 0.00 in0.0 mm 0.00 in0.0 mm 0.00 in0.0 mm
02:05 AM 51.8°F11.0°C 45.5°F7.5°C 79% 1.0 mph S1.6 kmh S 7.0 mph11.3 kmh 30.06 in1017.9 mb 0.00 in0.0 mm 0.00 in0.0 mm 0.00 in0.0 mm
01:50 AM 52.1°F11.2°C 46.1°F7.8°C 80% 2.0 mph S3.2 kmh S 8.0 mph12.9 kmh 30.06 in1017.9 mb 0.00 in0.0 mm 0.00 in0.0 mm 0.00 in0.0 mm
01:45 AM 52.1°F11.2°C 45.8°F7.7°C 79% 5.0 mph SSW8.0 kmh SSW 6.0 mph9.7 kmh 30.06 in1017.9 mb 0.00 in0.0 mm 0.00 in0.0 mm 0.00 in0.0 mm
01:30 AM 52.3°F11.3°C 45.7°F7.6°C 78% 4.0 mph SSW6.4 kmh SSW 6.0 mph9.7 kmh 30.06 in1017.9 mb 0.00 in0.0 mm 0.00 in0.0 mm 0.00 in0.0 mm
01:25 AM 52.3°F11.3°C 45.7°F7.6°C 78% 4.0 mph SSW6.4 kmh SSW 6.0 mph9.7 kmh 30.06 in1017.9 mb 0.00 in0.0 mm 0.00 in0.0 mm 0.00 in0.0 mm
01:09 AM 52.2°F11.2°C 45.9°F7.7°C 79% 7.0 mph S11.3 kmh S 8.0 mph12.9 kmh 30.06 in1017.9 mb 0.00 in0.0 mm 0.00 in0.0 mm 0.00 in0.0 mm
01:05 AM 52.3°F11.3°C 47.0°F8.3°C 82% 4.0 mph SSW6.4 kmh SSW 7.0 mph11.3 kmh 30.06 in1017.9 mb 0.00 in0.0 mm 0.00 in0.0 mm 0.00 in0.0 mm
12:50 AM 52.5°F11.4°C 47.5°F8.6°C 83% 4.0 mph SSW6.4 kmh SSW 9.0 mph14.5 kmh 30.05 in1017.6 mb 0.00 in0.0 mm 0.00 in0.0 mm 0.00 in0.0 mm
12:45 AM 52.6°F11.4°C 47.3°F8.5°C 82% 5.0 mph SW8.0 kmh SW 9.0 mph14.5 kmh 30.06 in1017.9 mb 0.00 in0.0 mm 0.00 in0.0 mm 0.00 in0.0 mm
12:30 AM 52.9°F11.6°C 48.2°F9.0°C 84% 4.0 mph SW6.4 kmh SW 11.0 mph17.7 kmh 30.05 in1017.6 mb 0.00 in0.0 mm 0.00 in0.0 mm 0.00 in0.0 mm
12:25 AM 52.8°F11.6°C 47.5°F8.6°C 82% 6.0 mph SW9.7 kmh SW 9.0 mph14.5 kmh 30.05 in1017.6 mb 0.00 in0.0 mm 0.00 in0.0 mm 0.00 in0.0 mm
12:10 AM 52.7°F11.5°C 45.7°F7.6°C 77% 8.0 mph SSW12.9 kmh SSW 8.0 mph12.9 kmh 30.05 in1017.6 mb 0.00 in0.0 mm 0.00 in0.0 mm 0.00 in0.0 mm
12:04 AM 52.7°F11.5°C 45.7°F7.6°C 77% 3.0 mph SSW4.8 kmh SSW 8.0 mph12.9 kmh 30.05 in1017.6 mb 0.00 in0.0 mm 0.00 in0.0 mm 0.00 in0.0 mm